TAM3879 SBFI-SBGR
Flight info
| Callsign | TAM3879 |
|---|---|
| Flight time | N/A |
| Altitude | 37000 |
| Route | KAMIL UZ28 XONUG UZ121 BUXUK |
| Aircraft | A320/M-SDE3FGHIRWY/LB1 |
Departure
| Time | 2026-04-20 20:52 |
|---|---|
| Airport | Cataratas International Airport (SBFI) |
Arrival
| Time | N/A |
|---|---|
| Airport | São Paulo/Guarulhos–Governor André Franco Montoro International Airport (SBGR) |
| Time | Latitude | Longitude | Altitude | Speed | Heading |
|---|---|---|---|---|---|
| 2026-04-20 20:25 | -25.59643 | -54.48913 | 799 ft | 0 kts | 221° |
| 2026-04-20 20:43 | -25.59640 | -54.48910 | 798 ft | 3 kts | 220° |
| 2026-04-20 20:43 | -25.59618 | -54.48894 | 798 ft | 4 kts | 197° |
| 2026-04-20 20:43 | -25.59594 | -54.48892 | 799 ft | 4 kts | 146° |
| 2026-04-20 20:43 | -25.59588 | -54.48898 | 799 ft | 0 kts | 131° |
| 2026-04-20 20:46 | -25.59595 | -54.48889 | 798 ft | 3 kts | 131° |
| 2026-04-20 20:46 | -25.59608 | -54.48872 | 798 ft | 6 kts | 131° |
| 2026-04-20 20:47 | -25.59657 | -54.48808 | 798 ft | 12 kts | 131° |
| 2026-04-20 20:47 | -25.59704 | -54.48745 | 798 ft | 9 kts | 114° |
| 2026-04-20 20:47 | -25.59679 | -54.48694 | 798 ft | 7 kts | 41° |
| 2026-04-20 20:47 | -25.59631 | -54.48677 | 798 ft | 9 kts | 333° |
| 2026-04-20 20:48 | -25.59580 | -54.48737 | 798 ft | 17 kts | 311° |
| 2026-04-20 20:48 | -25.59503 | -54.48835 | 800 ft | 17 kts | 311° |
| 2026-04-20 20:48 | -25.59430 | -54.48927 | 801 ft | 16 kts | 311° |
| 2026-04-20 20:48 | -25.59355 | -54.49021 | 799 ft | 17 kts | 311° |
| 2026-04-20 20:49 | -25.59278 | -54.49118 | 800 ft | 17 kts | 311° |
| 2026-04-20 20:49 | -25.59193 | -54.49225 | 798 ft | 21 kts | 311° |
| 2026-04-20 20:49 | -25.59090 | -54.49357 | 796 ft | 23 kts | 310° |
| 2026-04-20 20:49 | -25.58983 | -54.49493 | 796 ft | 24 kts | 311° |
| 2026-04-20 20:50 | -25.58873 | -54.49634 | 798 ft | 24 kts | 310° |
| 2026-04-20 20:50 | -25.58767 | -54.49770 | 800 ft | 24 kts | 311° |
| 2026-04-20 20:50 | -25.58644 | -54.49882 | 801 ft | 22 kts | 343° |
| 2026-04-20 20:50 | -25.58563 | -54.49973 | 801 ft | 13 kts | 257° |
| 2026-04-20 20:51 | -25.58620 | -54.49984 | 802 ft | 7 kts | 126° |
| 2026-04-20 20:51 | -25.58641 | -54.49941 | 802 ft | 6 kts | 120° |
| 2026-04-20 20:51 | -25.58727 | -54.49829 | 800 ft | 51 kts | 130° |
| 2026-04-20 20:51 | -25.59117 | -54.49325 | 796 ft | 118 kts | 130° |
| 2026-04-20 20:52 | -25.59760 | -54.48493 | 881 ft | 159 kts | 129° |
| 2026-04-20 20:52 | -25.60506 | -54.47534 | 1440 ft | 169 kts | 130° |
| 2026-04-20 20:52 | -25.61290 | -54.46514 | 1971 ft | 180 kts | 127° |
| 2026-04-20 20:52 | -25.62140 | -54.45357 | 2104 ft | 205 kts | 126° |
| 2026-04-20 20:53 | -25.63108 | -54.44079 | 2297 ft | 229 kts | 128° |
| 2026-04-20 20:53 | -25.64176 | -54.42718 | 2769 ft | 239 kts | 128° |
| 2026-04-20 20:53 | -25.65263 | -54.41352 | 3636 ft | 235 kts | 128° |
| 2026-04-20 20:53 | -25.66121 | -54.39814 | 4179 ft | 243 kts | 100° |
| 2026-04-20 20:54 | -25.66050 | -54.37917 | 4465 ft | 257 kts | 70° |
| 2026-04-20 20:54 | -25.65539 | -54.35954 | 4945 ft | 272 kts | 72° |
| 2026-04-20 20:54 | -25.65106 | -54.33887 | 5664 ft | 278 kts | 76° |
| 2026-04-20 20:54 | -25.64861 | -54.32452 | 6142 ft | 282 kts | 78° |
| 2026-04-20 20:55 | -25.64552 | -54.30287 | 6854 ft | 286 kts | 80° |
| 2026-04-20 20:55 | -25.64287 | -54.28092 | 7615 ft | 289 kts | 81° |
| 2026-04-20 20:55 | -25.64048 | -54.25906 | 8374 ft | 291 kts | 81° |
| 2026-04-20 20:55 | -25.63815 | -54.23674 | 9147 ft | 292 kts | 82° |
| 2026-04-20 20:56 | -25.63583 | -54.21428 | 9907 ft | 294 kts | 82° |
| 2026-04-20 20:56 | -25.63344 | -54.19134 | 10323 ft | 309 kts | 82° |
| 2026-04-20 20:56 | -25.63084 | -54.16680 | 10504 ft | 331 kts | 82° |
| 2026-04-20 20:56 | -25.62810 | -54.14107 | 10978 ft | 340 kts | 82° |
| 2026-04-20 20:57 | -25.62529 | -54.11486 | 11580 ft | 345 kts | 82° |
| 2026-04-20 20:57 | -25.62244 | -54.08829 | 12188 ft | 349 kts | 81° |
| 2026-04-20 20:57 | -25.61954 | -54.06139 | 12801 ft | 354 kts | 81° |
| 2026-04-20 20:57 | -25.61659 | -54.03418 | 13418 ft | 358 kts | 81° |
| 2026-04-20 20:58 | -25.61359 | -54.00671 | 13979 ft | 362 kts | 81° |
| 2026-04-20 20:58 | -25.61055 | -53.97888 | 14496 ft | 366 kts | 81° |
| 2026-04-20 20:58 | -25.60746 | -53.95075 | 15020 ft | 370 kts | 81° |
| 2026-04-20 20:58 | -25.60436 | -53.92235 | 15547 ft | 373 kts | 81° |
| 2026-04-20 20:59 | -25.60123 | -53.89370 | 16069 ft | 376 kts | 81° |
| 2026-04-20 20:59 | -25.59808 | -53.86476 | 16601 ft | 380 kts | 81° |
| 2026-04-20 20:59 | -25.59491 | -53.83555 | 17128 ft | 384 kts | 81° |
| 2026-04-20 20:59 | -25.59170 | -53.80603 | 17634 ft | 388 kts | 80° |
| 2026-04-20 21:00 | -25.58842 | -53.77623 | 18138 ft | 392 kts | 80° |
| 2026-04-20 21:00 | -25.58448 | -53.74627 | 18582 ft | 394 kts | 77° |
| 2026-04-20 21:00 | -25.57941 | -53.71632 | 19031 ft | 397 kts | 75° |
| 2026-04-20 21:00 | -25.57366 | -53.68633 | 19475 ft | 399 kts | 74° |
| 2026-04-20 21:01 | -25.56761 | -53.65618 | 19916 ft | 403 kts | 74° |
| 2026-04-20 21:01 | -25.56151 | -53.62577 | 20347 ft | 406 kts | 74° |
| 2026-04-20 21:01 | -25.55545 | -53.59504 | 20612 ft | 415 kts | 75° |
| 2026-04-20 21:01 | -25.54945 | -53.56377 | 20738 ft | 426 kts | 75° |
| 2026-04-20 21:02 | -25.54337 | -53.53137 | 21010 ft | 433 kts | 75° |
| 2026-04-20 21:02 | -25.53728 | -53.49859 | 21357 ft | 436 kts | 75° |
| 2026-04-20 21:02 | -25.53115 | -53.46554 | 21733 ft | 440 kts | 75° |
| 2026-04-20 21:02 | -25.52494 | -53.43226 | 22114 ft | 443 kts | 75° |
| 2026-04-20 21:03 | -25.51864 | -53.39875 | 22487 ft | 446 kts | 75° |
| 2026-04-20 21:03 | -25.51228 | -53.36500 | 22863 ft | 449 kts | 75° |
| 2026-04-20 21:03 | -25.50587 | -53.33102 | 23228 ft | 453 kts | 75° |
| 2026-04-20 21:03 | -25.49940 | -53.29679 | 23567 ft | 456 kts | 75° |
| 2026-04-20 21:04 | -25.49287 | -53.26236 | 23881 ft | 458 kts | 75° |
| 2026-04-20 21:04 | -25.48632 | -53.22778 | 24212 ft | 460 kts | 75° |
| 2026-04-20 21:04 | -25.47976 | -53.19316 | 24525 ft | 462 kts | 75° |
| 2026-04-20 21:04 | -25.47316 | -53.15825 | 24833 ft | 463 kts | 76° |
| 2026-04-20 21:05 | -25.46653 | -53.12327 | 25134 ft | 465 kts | 76° |
| 2026-04-20 21:05 | -25.45986 | -53.08815 | 25440 ft | 467 kts | 76° |
| 2026-04-20 21:05 | -25.45317 | -53.05297 | 25753 ft | 469 kts | 76° |
| 2026-04-20 21:05 | -25.44644 | -53.01754 | 26052 ft | 471 kts | 76° |
| 2026-04-20 21:06 | -25.43977 | -52.98250 | 26357 ft | 473 kts | 76° |
| 2026-04-20 21:06 | -25.43297 | -52.94685 | 26667 ft | 475 kts | 76° |
| 2026-04-20 21:06 | -25.42612 | -52.91108 | 26952 ft | 477 kts | 76° |
| 2026-04-20 21:06 | -25.41921 | -52.87514 | 27227 ft | 479 kts | 76° |
| 2026-04-20 21:07 | -25.41226 | -52.83910 | 27488 ft | 481 kts | 76° |
| 2026-04-20 21:07 | -25.40523 | -52.80287 | 27743 ft | 483 kts | 76° |
| 2026-04-20 21:07 | -25.39816 | -52.76647 | 27995 ft | 485 kts | 77° |
| 2026-04-20 21:07 | -25.39107 | -52.72991 | 28228 ft | 487 kts | 77° |
| 2026-04-20 21:08 | -25.38399 | -52.69330 | 28461 ft | 489 kts | 77° |
| 2026-04-20 21:08 | -25.37688 | -52.65646 | 28709 ft | 491 kts | 77° |
| 2026-04-20 21:08 | -25.36974 | -52.61948 | 28936 ft | 493 kts | 77° |
| 2026-04-20 21:08 | -25.36256 | -52.58236 | 29168 ft | 495 kts | 77° |
| 2026-04-20 21:09 | -25.35531 | -52.54515 | 29445 ft | 495 kts | 77° |
| 2026-04-20 21:09 | -25.34807 | -52.50798 | 29794 ft | 494 kts | 77° |
| 2026-04-20 21:09 | -25.34084 | -52.47089 | 30139 ft | 493 kts | 77° |
| 2026-04-20 21:09 | -25.33361 | -52.43382 | 30407 ft | 493 kts | 77° |
| 2026-04-20 21:10 | -25.32636 | -52.39681 | 30672 ft | 493 kts | 77° |
| 2026-04-20 21:10 | -25.31906 | -52.35975 | 30939 ft | 493 kts | 77° |
| 2026-04-20 21:10 | -25.31173 | -52.32271 | 31192 ft | 493 kts | 77° |
| 2026-04-20 21:10 | -25.30441 | -52.28565 | 31444 ft | 494 kts | 77° |
| 2026-04-20 21:11 | -25.29721 | -52.24909 | 31729 ft | 493 kts | 77° |
| 2026-04-20 21:11 | -25.28992 | -52.21207 | 32006 ft | 493 kts | 77° |
| 2026-04-20 21:11 | -25.28263 | -52.17514 | 32274 ft | 493 kts | 77° |
| 2026-04-20 21:11 | -25.27529 | -52.13812 | 32534 ft | 493 kts | 77° |
| 2026-04-20 21:12 | -25.26792 | -52.10110 | 32788 ft | 494 kts | 77° |
| 2026-04-20 21:12 | -25.26055 | -52.06405 | 33050 ft | 494 kts | 77° |
| 2026-04-20 21:12 | -25.25314 | -52.02698 | 33304 ft | 494 kts | 77° |
| 2026-04-20 21:12 | -25.24575 | -51.98989 | 33566 ft | 495 kts | 78° |
| 2026-04-20 21:13 | -25.23838 | -51.95276 | 33824 ft | 495 kts | 78° |
| 2026-04-20 21:13 | -25.23098 | -51.91567 | 34071 ft | 495 kts | 78° |
| 2026-04-20 21:13 | -25.22352 | -51.87847 | 34305 ft | 496 kts | 78° |
| 2026-04-20 21:13 | -25.21603 | -51.84129 | 34525 ft | 496 kts | 78° |
| 2026-04-20 21:14 | -25.20852 | -51.80414 | 34745 ft | 496 kts | 78° |
| 2026-04-20 21:14 | -25.20101 | -51.76694 | 34971 ft | 496 kts | 78° |
| 2026-04-20 21:14 | -25.19352 | -51.72973 | 35191 ft | 496 kts | 78° |
| 2026-04-20 21:14 | -25.18602 | -51.69252 | 35386 ft | 497 kts | 78° |
| 2026-04-20 21:15 | -25.17860 | -51.65579 | 35571 ft | 497 kts | 78° |
| 2026-04-20 21:15 | -25.17099 | -51.61812 | 35767 ft | 497 kts | 78° |
| 2026-04-20 21:15 | -25.16359 | -51.58133 | 35958 ft | 498 kts | 78° |
| 2026-04-20 21:15 | -25.15604 | -51.54397 | 36147 ft | 498 kts | 78° |
| 2026-04-20 21:16 | -25.14848 | -51.50671 | 36337 ft | 497 kts | 78° |
| 2026-04-20 21:16 | -25.14087 | -51.46955 | 36520 ft | 497 kts | 78° |
| 2026-04-20 21:16 | -25.13323 | -51.43232 | 36701 ft | 497 kts | 78° |
| 2026-04-20 21:16 | -25.12556 | -51.39509 | 36871 ft | 498 kts | 78° |
| 2026-04-20 21:17 | -25.11791 | -51.35785 | 37031 ft | 498 kts | 78° |
| 2026-04-20 21:17 | -25.11028 | -51.32049 | 37066 ft | 499 kts | 78° |
| 2026-04-20 21:17 | -25.09503 | -51.24574 | 37063 ft | 499 kts | 78° |
| 2026-04-20 21:18 | -25.07971 | -51.17100 | 37067 ft | 499 kts | 78° |
| 2026-04-20 21:18 | -25.06432 | -51.09632 | 37058 ft | 499 kts | 78° |
| 2026-04-20 21:19 | -25.04876 | -51.02176 | 37063 ft | 500 kts | 78° |
| 2026-04-20 21:20 | -25.02534 | -50.90971 | 37069 ft | 500 kts | 78° |
| 2026-04-20 21:20 | -25.00976 | -50.83493 | 37071 ft | 500 kts | 78° |
| 2026-04-20 21:21 | -24.99425 | -50.76073 | 37078 ft | 500 kts | 78° |
| 2026-04-20 21:21 | -24.97850 | -50.68612 | 37079 ft | 500 kts | 78° |
| 2026-04-20 21:22 | -24.96272 | -50.61157 | 37081 ft | 499 kts | 78° |
| 2026-04-20 21:22 | -24.94700 | -50.53718 | 37082 ft | 499 kts | 78° |
| 2026-04-20 21:23 | -24.93129 | -50.46278 | 37089 ft | 498 kts | 78° |
| 2026-04-20 21:23 | -24.91551 | -50.38845 | 37090 ft | 498 kts | 78° |
| 2026-04-20 21:24 | -24.89970 | -50.31423 | 37094 ft | 497 kts | 78° |
| 2026-04-20 21:24 | -24.88390 | -50.24010 | 37093 ft | 497 kts | 78° |
| 2026-04-20 21:25 | -24.86806 | -50.16606 | 37100 ft | 496 kts | 78° |
| 2026-04-20 21:25 | -24.85216 | -50.09218 | 37110 ft | 496 kts | 78° |
| 2026-04-20 21:26 | -24.83629 | -50.01834 | 37111 ft | 495 kts | 78° |
| 2026-04-20 21:26 | -24.82041 | -49.94460 | 37110 ft | 495 kts | 78° |
| 2026-04-20 21:27 | -24.80440 | -49.87094 | 37114 ft | 495 kts | 78° |
| 2026-04-20 21:27 | -24.78788 | -49.79745 | 37113 ft | 495 kts | 76° |
| 2026-04-20 21:28 | -24.76907 | -49.72514 | 37115 ft | 495 kts | 75° |
| 2026-04-20 21:28 | -24.74919 | -49.65265 | 37115 ft | 495 kts | 75° |
| 2026-04-20 21:29 | -24.72981 | -49.58011 | 37108 ft | 495 kts | 75° |
| 2026-04-20 21:29 | -24.71083 | -49.50731 | 37106 ft | 495 kts | 76° |
| 2026-04-20 21:30 | -24.69182 | -49.43468 | 37109 ft | 495 kts | 75° |
| 2026-04-20 21:30 | -24.67270 | -49.36195 | 37104 ft | 495 kts | 75° |
| 2026-04-20 21:31 | -24.65370 | -49.28926 | 37102 ft | 495 kts | 76° |
| 2026-04-20 21:31 | -24.63467 | -49.21655 | 37106 ft | 495 kts | 76° |
| 2026-04-20 21:32 | -24.61556 | -49.14396 | 37105 ft | 495 kts | 75° |
| 2026-04-20 21:32 | -24.59609 | -49.07140 | 37111 ft | 495 kts | 75° |
| 2026-04-20 21:33 | -24.57650 | -48.99943 | 37111 ft | 495 kts | 75° |
| 2026-04-20 21:33 | -24.55685 | -48.92707 | 37114 ft | 494 kts | 75° |
| 2026-04-20 21:34 | -24.53728 | -48.85469 | 37112 ft | 494 kts | 75° |
| 2026-04-20 21:34 | -24.51765 | -48.78236 | 37112 ft | 494 kts | 75° |
| 2026-04-20 21:35 | -24.49807 | -48.71005 | 37114 ft | 494 kts | 75° |
| 2026-04-20 21:35 | -24.47859 | -48.63779 | 37113 ft | 494 kts | 75° |
| 2026-04-20 21:36 | -24.45902 | -48.56543 | 37116 ft | 494 kts | 76° |
| 2026-04-20 21:36 | -24.43945 | -48.49328 | 37114 ft | 494 kts | 75° |
| 2026-04-20 21:37 | -24.41979 | -48.42107 | 37114 ft | 494 kts | 76° |
| 2026-04-20 21:37 | -24.40011 | -48.34891 | 37119 ft | 493 kts | 75° |
| 2026-04-20 21:38 | -24.38055 | -48.27730 | 37116 ft | 493 kts | 75° |
| 2026-04-20 21:38 | -24.35665 | -48.20683 | 37119 ft | 496 kts | 62° |
| 2026-04-20 21:38 | -24.33772 | -48.17525 | 37117 ft | 497 kts | 51° |
| 2026-04-20 21:39 | -24.31432 | -48.14753 | 37112 ft | 496 kts | 41° |
| 2026-04-20 21:39 | -24.25729 | -48.10562 | 37109 ft | 494 kts | 26° |
| 2026-04-20 21:40 | -24.19669 | -48.06991 | 37107 ft | 494 kts | 27° |
| 2026-04-20 21:40 | -24.13611 | -48.03418 | 37106 ft | 495 kts | 27° |
| 2026-04-20 21:41 | -24.07548 | -47.99842 | 37107 ft | 495 kts | 27° |
| 2026-04-20 21:41 | -24.01473 | -47.96283 | 37099 ft | 495 kts | 27° |
| 2026-04-20 21:42 | -23.95404 | -47.92720 | 37047 ft | 496 kts | 27° |
| 2026-04-20 21:42 | -23.92353 | -47.90929 | 36221 ft | 502 kts | 27° |
| 2026-04-20 21:42 | -23.89268 | -47.89124 | 35382 ft | 505 kts | 27° |
| 2026-04-20 21:42 | -23.86153 | -47.87304 | 34599 ft | 508 kts | 27° |
| 2026-04-20 21:43 | -23.83047 | -47.85489 | 33924 ft | 506 kts | 27° |
| 2026-04-20 21:43 | -23.79956 | -47.83680 | 32680 ft | 503 kts | 27° |
| 2026-04-20 21:43 | -23.76957 | -47.81722 | 31310 ft | 503 kts | 35° |
| 2026-04-20 21:43 | -23.74237 | -47.79297 | 30225 ft | 508 kts | 44° |
| 2026-04-20 21:44 | -23.71764 | -47.76647 | 29458 ft | 503 kts | 44° |
| 2026-04-20 21:44 | -23.69261 | -47.73999 | 28647 ft | 499 kts | 44° |
| 2026-04-20 21:44 | -23.66761 | -47.71386 | 27817 ft | 496 kts | 43° |
| 2026-04-20 21:44 | -23.64275 | -47.68802 | 27078 ft | 492 kts | 43° |
| 2026-04-20 21:45 | -23.61820 | -47.66251 | 26592 ft | 482 kts | 43° |
| 2026-04-20 21:45 | -23.59433 | -47.63760 | 26261 ft | 469 kts | 44° |
| 2026-04-20 21:45 | -23.57108 | -47.61319 | 25913 ft | 460 kts | 44° |
| 2026-04-20 21:45 | -23.54816 | -47.58905 | 25569 ft | 457 kts | 44° |
| 2026-04-20 21:46 | -23.52538 | -47.56506 | 25227 ft | 454 kts | 44° |
| 2026-04-20 21:46 | -23.50273 | -47.54127 | 24884 ft | 452 kts | 44° |
| 2026-04-20 21:46 | -23.48010 | -47.51757 | 24530 ft | 448 kts | 44° |
| 2026-04-20 21:46 | -23.45764 | -47.49407 | 24200 ft | 447 kts | 44° |
| 2026-04-20 21:47 | -23.43533 | -47.47072 | 23852 ft | 444 kts | 44° |
| 2026-04-20 21:47 | -23.41306 | -47.44739 | 23506 ft | 443 kts | 44° |
| 2026-04-20 21:47 | -23.39096 | -47.42426 | 23163 ft | 440 kts | 44° |
| 2026-04-20 21:47 | -23.36898 | -47.40126 | 22861 ft | 437 kts | 44° |
| 2026-04-20 21:48 | -23.34709 | -47.37834 | 22593 ft | 436 kts | 45° |
| 2026-04-20 21:48 | -23.32647 | -47.35427 | 21803 ft | 437 kts | 55° |
| 2026-04-20 21:48 | -23.31238 | -47.32495 | 20886 ft | 439 kts | 73° |
| 2026-04-20 21:48 | -23.30626 | -47.29290 | 20362 ft | 430 kts | 84° |
| 2026-04-20 21:49 | -23.30220 | -47.26123 | 19830 ft | 425 kts | 84° |
| 2026-04-20 21:49 | -23.29942 | -47.23983 | 19476 ft | 422 kts | 84° |
| 2026-04-20 21:49 | -23.29398 | -47.19827 | 18794 ft | 416 kts | 84° |
| 2026-04-20 21:49 | -23.28988 | -47.16722 | 18233 ft | 413 kts | 84° |
| 2026-04-20 21:50 | -23.28580 | -47.13639 | 17659 ft | 410 kts | 84° |
| 2026-04-20 21:50 | -23.28307 | -47.11573 | 17286 ft | 407 kts | 84° |
| 2026-04-20 21:50 | -23.27909 | -47.08543 | 16738 ft | 402 kts | 84° |
| 2026-04-20 21:50 | -23.27389 | -47.04578 | 15998 ft | 398 kts | 84° |
| 2026-04-20 21:51 | -23.27000 | -47.01615 | 15427 ft | 395 kts | 84° |
| 2026-04-20 21:51 | -23.26744 | -46.99658 | 15049 ft | 394 kts | 84° |
| 2026-04-20 21:51 | -23.26357 | -46.96717 | 14485 ft | 392 kts | 84° |
| 2026-04-20 21:51 | -23.25972 | -46.93793 | 14009 ft | 386 kts | 84° |
| 2026-04-20 21:52 | -23.25597 | -46.90950 | 13287 ft | 373 kts | 84° |
| 2026-04-20 21:52 | -23.25234 | -46.88215 | 12736 ft | 356 kts | 84° |
| 2026-04-20 21:52 | -23.24889 | -46.85605 | 12207 ft | 342 kts | 84° |
| 2026-04-20 21:52 | -23.24556 | -46.83088 | 11682 ft | 332 kts | 84° |
| 2026-04-20 21:53 | -23.24229 | -46.80607 | 11169 ft | 332 kts | 84° |
| 2026-04-20 21:53 | -23.24075 | -46.78122 | 10864 ft | 323 kts | 97° |
| 2026-04-20 21:53 | -23.24575 | -46.75820 | 10732 ft | 303 kts | 115° |
| 2026-04-20 21:53 | -23.25647 | -46.73895 | 10110 ft | 297 kts | 134° |
| 2026-04-20 21:54 | -23.27232 | -46.72508 | 9545 ft | 289 kts | 152° |
| 2026-04-20 21:54 | -23.29054 | -46.71749 | 9185 ft | 275 kts | 168° |
| 2026-04-20 21:54 | -23.30908 | -46.71513 | 8864 ft | 262 kts | 175° |
| 2026-04-20 21:54 | -23.32691 | -46.71361 | 8557 ft | 250 kts | 175° |
| 2026-04-20 21:55 | -23.34389 | -46.71213 | 8272 ft | 241 kts | 175° |
| 2026-04-20 21:55 | -23.36047 | -46.71069 | 7988 ft | 239 kts | 175° |
| 2026-04-20 21:55 | -23.37709 | -46.70925 | 7704 ft | 240 kts | 175° |
| 2026-04-20 21:55 | -23.39371 | -46.70782 | 7413 ft | 238 kts | 175° |
| 2026-04-20 21:56 | -23.40986 | -46.70623 | 7134 ft | 228 kts | 169° |
| 2026-04-20 21:56 | -23.42442 | -46.70053 | 6875 ft | 221 kts | 149° |
| 2026-04-20 21:56 | -23.43610 | -46.68991 | 6566 ft | 219 kts | 131° |
| 2026-04-20 21:56 | -23.44464 | -46.67657 | 6245 ft | 215 kts | 126° |
| 2026-04-20 21:57 | -23.45296 | -46.66324 | 5953 ft | 214 kts | 126° |
| 2026-04-20 21:57 | -23.46146 | -46.64973 | 5633 ft | 217 kts | 126° |
| 2026-04-20 21:57 | -23.46849 | -46.63510 | 5264 ft | 220 kts | 108° |
| 2026-04-20 21:57 | -23.47000 | -46.61918 | 4965 ft | 205 kts | 87° |
| 2026-04-20 21:58 | -23.46687 | -46.60452 | 4705 ft | 194 kts | 78° |
| 2026-04-20 21:58 | -23.46320 | -46.59087 | 4456 ft | 182 kts | 78° |
| 2026-04-20 21:58 | -23.45975 | -46.57801 | 4219 ft | 172 kts | 77° |
| 2026-04-20 21:58 | -23.45651 | -46.56598 | 4024 ft | 158 kts | 78° |
| 2026-04-20 21:59 | -23.45350 | -46.55473 | 3776 ft | 152 kts | 78° |
| 2026-04-20 21:59 | -23.45047 | -46.54413 | 3550 ft | 146 kts | 75° |
| 2026-04-20 21:59 | -23.44738 | -46.53363 | 3442 ft | 145 kts | 77° |
| 2026-04-20 21:59 | -23.44457 | -46.52288 | 3246 ft | 146 kts | 79° |
| 2026-04-20 22:00 | -23.44187 | -46.51222 | 3036 ft | 147 kts | 77° |
| 2026-04-20 22:00 | -23.43904 | -46.50148 | 2824 ft | 148 kts | 79° |
| 2026-04-20 22:00 | -23.43619 | -46.49070 | 2642 ft | 148 kts | 76° |
| 2026-04-20 22:00 | -23.43334 | -46.48004 | 2472 ft | 142 kts | 75° |
| 2026-04-20 22:01 | -23.43094 | -46.47050 | 2468 ft | 140 kts | 77° |
| 2026-04-20 22:01 | -23.42773 | -46.45895 | 2858 ft | 172 kts | 73° |
| 2026-04-20 22:01 | -23.42381 | -46.44658 | 3563 ft | 171 kts | 74° |
| 2026-04-20 22:01 | -23.41960 | -46.43385 | 3795 ft | 194 kts | 74° |
| 2026-04-20 22:02 | -23.41741 | -46.41859 | 3551 ft | 214 kts | 101° |
| 2026-04-20 22:02 | -23.42402 | -46.40400 | 3691 ft | 222 kts | 136° |
| 2026-04-20 22:02 | -23.43663 | -46.39423 | 4258 ft | 223 kts | 148° |
| 2026-04-20 22:02 | -23.44986 | -46.38532 | 4852 ft | 225 kts | 149° |
| 2026-04-20 22:03 | -23.46332 | -46.37648 | 5414 ft | 226 kts | 149° |
| 2026-04-20 22:03 | -23.47684 | -46.36763 | 5910 ft | 229 kts | 149° |
| 2026-04-20 22:03 | -23.49054 | -46.35862 | 6008 ft | 231 kts | 149° |
| 2026-04-20 22:03 | -23.50431 | -46.34951 | 6028 ft | 231 kts | 149° |
| 2026-04-20 22:04 | -23.51807 | -46.34041 | 6028 ft | 232 kts | 149° |
| 2026-04-20 22:04 | -23.53123 | -46.33031 | 6026 ft | 232 kts | 135° |
| 2026-04-20 22:04 | -23.54239 | -46.31761 | 6019 ft | 232 kts | 144° |
| 2026-04-20 22:04 | -23.55717 | -46.31157 | 6025 ft | 230 kts | 179° |
| 2026-04-20 22:05 | -23.57243 | -46.31558 | 6016 ft | 233 kts | 210° |
| 2026-04-20 22:05 | -23.58366 | -46.32826 | 6020 ft | 237 kts | 242° |
| 2026-04-20 22:05 | -23.58707 | -46.34580 | 6023 ft | 242 kts | 274° |
| 2026-04-20 22:05 | -23.58148 | -46.36299 | 6020 ft | 246 kts | 305° |
| 2026-04-20 22:06 | -23.56838 | -46.37502 | 6031 ft | 249 kts | 332° |
| 2026-04-20 22:06 | -23.55259 | -46.38304 | 6031 ft | 251 kts | 337° |
| 2026-04-20 22:06 | -23.53652 | -46.39039 | 6030 ft | 251 kts | 338° |
| 2026-04-20 22:06 | -23.52033 | -46.39761 | 6035 ft | 252 kts | 338° |
| 2026-04-20 22:07 | -23.50408 | -46.40475 | 6038 ft | 252 kts | 338° |
| 2026-04-20 22:07 | -23.48777 | -46.41186 | 6035 ft | 252 kts | 338° |
| 2026-04-20 22:07 | -23.47141 | -46.41896 | 6035 ft | 253 kts | 338° |
| 2026-04-20 22:07 | -23.45504 | -46.42615 | 6040 ft | 254 kts | 338° |
| 2026-04-20 22:08 | -23.43884 | -46.43323 | 6260 ft | 251 kts | 338° |
| 2026-04-20 22:08 | -23.42244 | -46.44031 | 6508 ft | 254 kts | 338° |
| 2026-04-20 22:08 | -23.40628 | -46.44733 | 6737 ft | 253 kts | 338° |
| 2026-04-20 22:08 | -23.38995 | -46.45444 | 6937 ft | 254 kts | 338° |
| 2026-04-20 22:09 | -23.37342 | -46.46160 | 7018 ft | 257 kts | 338° |
| 2026-04-20 22:09 | -23.35683 | -46.46881 | 7033 ft | 256 kts | 338° |
| 2026-04-20 22:09 | -23.34022 | -46.47601 | 7036 ft | 257 kts | 338° |
| 2026-04-20 22:09 | -23.32356 | -46.48324 | 7033 ft | 258 kts | 338° |
| 2026-04-20 22:10 | -23.30698 | -46.49049 | 7029 ft | 256 kts | 338° |
| 2026-04-20 22:10 | -23.29045 | -46.49778 | 7028 ft | 257 kts | 338° |
| 2026-04-20 22:10 | -23.27395 | -46.50511 | 7028 ft | 255 kts | 338° |
| 2026-04-20 22:10 | -23.25750 | -46.51245 | 7024 ft | 257 kts | 338° |
| 2026-04-20 22:11 | -23.24082 | -46.51978 | 7023 ft | 258 kts | 338° |